Главная страница
METAR-TAF:

METAR-TAF

Аэропорты :

Воронеж, Россия

широта: 51-39N, долгота: 039-15E, высота над уровнем моря: 154 м

Текущие метеонаблюдения

Эта сводка был подготовлена 26 минут назад, в 10:00 UTC
Ветер 8 Узел от северо-западный
Температура 11°C
Влажность 66%
Давление 1019 hPa
Видимость 10 км и более
небольшой дождь

METAR: UUOO 231000Z 31004MPS 9999 -RA NSC 11/05 Q1019 R12/090060 NOSIG RMK QFE750

Время: 13:26 (10:26 UTC)

Прогноз

Эта сводка был подготовлена 2 часа и 26 минут назад, в 08:00 UTC
Прогноз действительный с 23-го 09 UTC до 23-го 18 UTC
Ветер 6 Узел от юго-западный
Видимость 10 км и более
Отдельные облака на высоте 800 фута
Рассеянная облачность на высоте 2000 фута
небольшой дождь
изменения
С 23-го 12 UTC до 23-го 14 UTC
Ветер 10 Узел от северо-западный

TAF: UUOO 230800Z 2309/2318 23003MPS 9999 -RA SCT008 BKN020 BECMG 2312/2314 32005MPS

Метеонаблюдения и прогнозы для более 4000 аэропортов (сводки METAR и TAF).

Имеющиеся станции представлены на карте желтыми и красными точками.

Чтобы увидеть название станции, наведите на нее мышь.

Затем щелкните, чтобы увидеть метеонаблюдения и метеопрогнозы.

Управление картой: чтобы увеличить масштаб, щелкните зеленые кнопки с черным крестиком; чтобы уменьшить масштаб, щелкните зеленую кнопку с тире; для просмотра соседних карт щелкайте зеленые стрелки.


METAR-TAF: